Time;durP1;ratioP1;P1;durP2;ratioP2;P2;SDS_P1;SDS_P2;PMS_P1;PMS_P2;Temp;Humidity;BMP_temperature;BMP_pressure;BME280_temperature;BME280_humidity;BME280_pressure;Samples;Min_cycle;Max_cycle;Signal;HPM_P1;HPM_P2
2021/06/25 00:01:11;;;;;;;2.20;1.70;;;17.10;99.90;;;;;;5051005;28;20452;-57
2021/06/25 00:03:39;;;;;;;1.00;1.00;;;17.00;99.90;;;;;;5051484;28;20471;-58
2021/06/25 00:06:06;;;;;;;2.70;1.40;;;17.10;99.90;;;;;;5051167;28;20486;-58
2021/06/25 00:08:33;;;;;;;1.60;1.50;;;17.20;99.90;;;;;;5049730;28;20452;-58
2021/06/25 00:11:01;;;;;;;2.30;1.13;;;17.20;99.90;;;;;;5051246;28;20953;-57
2021/06/25 00:13:28;;;;;;;1.37;0.97;;;17.00;99.90;;;;;;5051295;28;20454;-57
2021/06/25 00:15:55;;;;;;;3.37;1.00;;;17.00;99.90;;;;;;5050021;28;20834;-57
2021/06/25 00:18:22;;;;;;;1.23;1.10;;;17.10;99.90;;;;;;5036661;28;20448;-58
2021/06/25 00:20:50;;;;;;;1.20;1.00;;;17.10;99.90;;;;;;5044480;28;20453;-59
2021/06/25 00:23:17;;;;;;;1.87;1.00;;;17.10;99.90;;;;;;5049474;28;20848;-58
2021/06/25 00:25:44;;;;;;;5.23;1.40;;;17.00;99.90;;;;;;5051428;28;20491;-58
2021/06/25 00:28:12;;;;;;;1.47;1.30;;;16.90;99.90;;;;;;5051707;28;20454;-58
2021/06/25 00:30:40;;;;;;;2.50;1.50;;;16.80;99.90;;;;;;5051355;28;20466;-58
2021/06/25 00:33:08;;;;;;;2.80;1.30;;;16.90;99.90;;;;;;5041914;28;21064;-58
2021/06/25 00:35:35;;;;;;;1.60;1.50;;;16.90;99.90;;;;;;5029408;28;20451;-58
2021/06/25 00:38:02;;;;;;;1.57;1.30;;;17.00;99.90;;;;;;5051329;28;20452;-58
2021/06/25 00:40:29;;;;;;;3.70;1.90;;;17.00;99.90;;;;;;5051482;28;20448;-58
2021/06/25 00:42:56;;;;;;;1.57;1.47;;;17.00;99.90;;;;;;5051078;28;20482;-58
2021/06/25 00:45:25;;;;;;;2.63;2.13;;;17.00;99.90;;;;;;5048018;28;20479;-58
2021/06/25 00:47:52;;;;;;;3.33;1.20;;;16.90;99.90;;;;;;5031534;28;20453;-58
2021/06/25 00:50:22;;;;;;;1.57;1.47;;;16.90;99.90;;;;;;5033009;28;20455;-58
2021/06/25 00:52:51;;;;;;;2.80;1.90;;;16.90;99.90;;;;;;5029206;28;20491;-58
2021/06/25 00:55:19;;;;;;;1.77;1.67;;;16.80;99.90;;;;;;5031290;28;20479;-58
2021/06/25 00:57:46;;;;;;;1.73;1.63;;;16.80;99.90;;;;;;5031052;28;20456;-58
2021/06/25 01:00:15;;;;;;;1.60;1.50;;;16.70;99.90;;;;;;5011440;28;20453;-58
2021/06/25 01:02:44;;;;;;;1.77;1.50;;;16.70;99.90;;;;;;5030113;28;20989;-58
2021/06/25 01:05:12;;;;;;;9.33;1.70;;;16.60;99.90;;;;;;5040817;28;21003;-58
2021/06/25 01:07:40;;;;;;;3.00;1.50;;;16.60;99.90;;;;;;5032844;28;20452;-58
2021/06/25 01:10:09;;;;;;;2.97;1.50;;;16.60;99.90;;;;;;5031078;28;20448;-59
2021/06/25 01:12:36;;;;;;;1.83;1.50;;;16.50;99.90;;;;;;5030764;28;20503;-58
2021/06/25 01:15:04;;;;;;;2.03;1.70;;;16.50;99.90;;;;;;5049438;28;20463;-58
2021/06/25 01:17:34;;;;;;;2.57;1.70;;;16.50;99.90;;;;;;5039156;28;20842;-58
2021/06/25 01:20:06;;;;;;;1.90;1.80;;;16.50;99.90;;;;;;5029261;28;20950;-58
2021/06/25 01:22:35;;;;;;;2.00;1.80;;;16.50;99.90;;;;;;5047917;28;20482;-58
2021/06/25 01:25:07;;;;;;;1.90;1.80;;;16.50;99.90;;;;;;5050831;28;20459;-58
2021/06/25 01:27:35;;;;;;;4.30;2.47;;;16.40;99.90;;;;;;5051175;28;20452;-58
2021/06/25 01:30:04;;;;;;;2.93;1.87;;;16.40;99.90;;;;;;5050715;28;20443;-58
2021/06/25 01:32:32;;;;;;;1.80;1.70;;;16.40;99.90;;;;;;5053772;28;20459;-58
2021/06/25 01:35:01;;;;;;;3.17;2.00;;;16.40;99.90;;;;;;5040966;28;20464;-58
2021/06/25 01:37:29;;;;;;;3.03;2.20;;;16.40;99.90;;;;;;5023478;28;20481;-58
2021/06/25 01:39:58;;;;;;;2.23;2.03;;;16.40;99.90;;;;;;5034023;28;20448;-58
2021/06/25 01:42:25;;;;;;;2.53;2.10;;;16.50;99.90;;;;;;5033756;28;20847;-58
2021/06/25 01:44:54;;;;;;;4.33;2.70;;;16.50;99.90;;;;;;5034548;28;20453;-58
2021/06/25 01:47:21;;;;;;;3.57;2.50;;;16.50;99.90;;;;;;5034240;28;20993;-58
2021/06/25 01:49:48;;;;;;;4.90;2.67;;;16.50;99.90;;;;;;5034260;28;20448;-58
2021/06/25 01:52:20;;;;;;;2.97;2.77;;;16.40;99.90;;;;;;5034229;28;20472;-58
2021/06/25 01:54:47;;;;;;;3.27;3.03;;;16.40;99.90;;;;;;5036422;28;20447;-58
2021/06/25 01:57:16;;;;;;;3.43;2.73;;;16.30;99.90;;;;;;5034393;28;20456;-58
2021/06/25 01:59:43;;;;;;;2.87;2.67;;;16.20;99.90;;;;;;5034210;28;20452;-58
2021/06/25 02:02:10;;;;;;;3.13;2.83;;;16.30;99.90;;;;;;5032239;28;20472;-58
2021/06/25 02:04:37;;;;;;;2.43;2.30;;;16.20;99.90;;;;;;5033839;28;20461;-58
2021/06/25 02:07:05;;;;;;;4.43;2.97;;;16.30;99.90;;;;;;5034073;28;20506;-59
2021/06/25 02:09:32;;;;;;;2.60;2.40;;;16.30;99.90;;;;;;5033899;28;20973;-58
2021/06/25 02:11:59;;;;;;;2.20;2.10;;;16.30;99.90;;;;;;5035496;28;20484;-58
2021/06/25 02:14:30;;;;;;;3.00;2.10;;;16.40;99.90;;;;;;5033663;28;20449;-58
2021/06/25 02:16:57;;;;;;;4.33;2.73;;;16.40;99.90;;;;;;5033376;28;20472;-58
2021/06/25 02:19:24;;;;;;;3.23;2.67;;;16.40;99.90;;;;;;5033908;28;20452;-58
2021/06/25 02:21:51;;;;;;;3.67;2.60;;;16.40;99.90;;;;;;5022682;28;20480;-58
2021/06/25 02:24:18;;;;;;;2.97;2.43;;;16.30;99.90;;;;;;5014002;28;20831;-58
2021/06/25 02:26:45;;;;;;;2.50;2.33;;;16.40;99.90;;;;;;5033543;28;20480;-58
2021/06/25 02:29:12;;;;;;;2.83;2.63;;;16.50;99.90;;;;;;5047059;28;20467;-58
2021/06/25 02:31:41;;;;;;;2.73;2.53;;;16.50;99.90;;;;;;5033791;28;20475;-58
2021/06/25 02:34:08;;;;;;;2.20;2.10;;;16.50;99.90;;;;;;5033650;28;20939;-58
2021/06/25 02:36:35;;;;;;;3.53;2.77;;;16.50;99.90;;;;;;5033323;28;20874;-59
2021/06/25 02:39:03;;;;;;;2.50;2.40;;;16.50;99.90;;;;;;5033511;28;20459;-57
2021/06/25 02:41:30;;;;;;;3.73;2.60;;;16.50;99.90;;;;;;5033140;28;20564;-57
2021/06/25 02:43:57;;;;;;;2.43;2.23;;;16.50;99.90;;;;;;5032327;28;20464;-58
2021/06/25 02:46:24;;;;;;;2.20;2.10;;;16.40;99.90;;;;;;5026638;28;20470;-57
2021/06/25 02:48:53;;;;;;;3.23;2.53;;;16.30;99.90;;;;;;5031940;28;20455;-58
2021/06/25 02:51:20;;;;;;;2.43;2.23;;;16.20;99.90;;;;;;5022307;28;20452;-57
2021/06/25 02:53:47;;;;;;;2.03;1.93;;;16.30;99.90;;;;;;5033213;28;20450;-57
2021/06/25 02:56:14;;;;;;;2.20;2.10;;;16.30;99.90;;;;;;5032982;28;20448;-57
2021/06/25 02:58:41;;;;;;;2.60;2.40;;;16.30;99.90;;;;;;5032843;28;20938;-56
2021/06/25 03:01:08;;;;;;;2.57;2.27;;;16.20;99.90;;;;;;5029188;28;20454;-56
2021/06/25 03:03:35;;;;;;;3.00;2.80;;;16.10;99.90;;;;;;5013235;28;20449;-56
2021/06/25 03:06:04;;;;;;;4.27;2.70;;;16.10;99.90;;;;;;5013014;28;20482;-57
2021/06/25 03:08:31;;;;;;;3.60;2.87;;;16.00;99.90;;;;;;5013414;28;20457;-57
2021/06/25 03:10:59;;;;;;;3.20;3.00;;;16.00;99.90;;;;;;5015217;28;20449;-57
2021/06/25 03:13:27;;;;;;;3.37;3.07;;;16.00;99.90;;;;;;5032429;28;20503;-57
2021/06/25 03:15:54;;;;;;;4.03;3.13;;;16.10;99.90;;;;;;5015215;28;20445;-56
2021/06/25 03:18:21;;;;;;;7.13;3.17;;;16.20;99.90;;;;;;5015327;28;20449;-57
2021/06/25 03:20:49;;;;;;;4.40;3.40;;;16.10;99.90;;;;;;5012867;28;20449;-57
2021/06/25 03:23:18;;;;;;;3.77;3.47;;;16.20;99.90;;;;;;5031281;28;20472;-57
2021/06/25 03:25:45;;;;;;;3.37;3.17;;;16.20;99.90;;;;;;5032322;28;20855;-57
2021/06/25 03:28:12;;;;;;;3.97;3.57;;;16.20;99.90;;;;;;5032441;28;20953;-56
2021/06/25 03:30:40;;;;;;;3.47;3.23;;;16.30;99.90;;;;;;5032399;28;20459;-57
2021/06/25 03:33:08;;;;;;;3.43;3.17;;;16.30;99.90;;;;;;5032238;28;20523;-56
2021/06/25 03:35:35;;;;;;;3.73;3.43;;;16.30;99.90;;;;;;5029152;28;20452;-58
2021/06/25 03:38:03;;;;;;;5.47;3.60;;;16.20;99.90;;;;;;5044859;28;20451;-56
2021/06/25 03:40:34;;;;;;;3.93;3.53;;;15.80;99.90;;;;;;5032166;28;20467;-57
2021/06/25 03:43:01;;;;;;;4.63;3.73;;;15.60;99.90;;;;;;5031716;28;20918;-57
2021/06/25 03:45:28;;;;;;;4.20;3.87;;;15.60;99.90;;;;;;5032252;28;20457;-56
2021/06/25 03:47:55;;;;;;;4.07;3.73;;;15.70;99.90;;;;;;5023720;28;20860;-57
2021/06/25 03:50:23;;;;;;;6.43;3.90;;;15.90;99.90;;;;;;5023928;28;20451;-56
2021/06/25 03:52:50;;;;;;;4.30;3.90;;;16.00;99.90;;;;;;5024480;28;20481;-56
2021/06/25 03:55:17;;;;;;;3.27;3.07;;;16.20;99.90;;;;;;5032187;28;20453;-56
2021/06/25 03:57:46;;;;;;;4.50;3.70;;;16.30;99.90;;;;;;5022854;28;20456;-56
2021/06/25 04:00:16;;;;;;;3.60;3.30;;;16.30;99.90;;;;;;5028981;28;20832;-56
2021/06/25 04:02:43;;;;;;;3.80;3.40;;;16.30;99.90;;;;;;5031983;28;20480;-57
2021/06/25 04:05:11;;;;;;;4.63;3.60;;;16.30;99.90;;;;;;5032061;28;20453;-57
2021/06/25 04:07:39;;;;;;;3.67;3.37;;;16.30;99.90;;;;;;5031680;28;20479;-56
2021/06/25 04:10:08;;;;;;;5.13;4.10;;;16.30;99.90;;;;;;5031493;28;20452;-56
2021/06/25 04:12:35;;;;;;;4.53;3.60;;;16.40;99.90;;;;;;5028515;28;20482;-57
2021/06/25 04:15:06;;;;;;;4.03;3.70;;;16.40;99.90;;;;;;5016708;28;20461;-57
2021/06/25 04:17:33;;;;;;;3.43;3.23;;;16.40;99.90;;;;;;5025620;28;20496;-56
2021/06/25 04:20:00;;;;;;;3.50;3.00;;;16.40;99.90;;;;;;5020076;28;20469;-56
2021/06/25 04:22:27;;;;;;;3.60;3.30;;;16.50;99.90;;;;;;5027844;28;20476;-56
2021/06/25 04:24:54;;;;;;;3.70;3.40;;;16.50;99.90;;;;;;5030539;28;20791;-57
2021/06/25 04:27:22;;;;;;;3.60;3.37;;;16.50;99.90;;;;;;5023190;28;20488;-56
2021/06/25 04:29:49;;;;;;;4.23;3.87;;;16.50;99.90;;;;;;5025331;28;20468;-57
2021/06/25 04:32:20;;;;;;;3.90;3.60;;;16.50;99.90;;;;;;5031410;28;20479;-57
2021/06/25 04:34:47;;;;;;;3.63;3.37;;;16.50;99.90;;;;;;5022308;28;21135;-56
2021/06/25 04:37:14;;;;;;;3.50;3.20;;;16.50;99.90;;;;;;5028912;28;20449;-56
2021/06/25 04:39:41;;;;;;;3.33;3.13;;;16.50;99.90;;;;;;5037152;28;20453;-55
2021/06/25 04:42:11;;;;;;;7.00;3.00;;;16.50;99.90;;;;;;5029223;28;20479;-57
2021/06/25 04:44:39;;;;;;;3.37;3.07;;;16.50;99.90;;;;;;5011871;28;20452;-57
2021/06/25 04:47:06;;;;;;;3.67;3.37;;;16.40;99.90;;;;;;5012560;28;20489;-56
2021/06/25 04:49:37;;;;;;;3.90;3.60;;;16.50;99.90;;;;;;5019503;28;20475;-56
2021/06/25 04:52:04;;;;;;;3.90;3.50;;;16.50;99.90;;;;;;5029411;28;21028;-57
2021/06/25 04:54:31;;;;;;;3.63;3.30;;;16.50;99.90;;;;;;5026011;28;20446;-56
2021/06/25 04:56:59;;;;;;;3.90;3.60;;;16.50;99.90;;;;;;5028938;28;20449;-57
2021/06/25 04:59:26;;;;;;;3.43;3.23;;;16.50;99.90;;;;;;5019498;28;20456;-57
2021/06/25 05:01:53;;;;;;;3.90;3.23;;;16.50;99.90;;;;;;5053369;22;20603;-50
2021/06/25 05:04:21;;;;;;;3.40;3.20;;;16.60;99.90;;;;;;5017115;28;20633;-50
2021/06/25 05:06:49;;;;;;;3.70;3.40;;;16.70;99.90;;;;;;5021577;28;20484;-51
2021/06/25 05:09:16;;;;;;;4.33;3.93;;;16.70;99.90;;;;;;5017702;28;20457;-50
2021/06/25 05:11:43;;;;;;;3.95;3.63;;;16.80;99.90;;;;;;5018661;28;20445;-50
2021/06/25 05:14:10;;;;;;;4.10;3.80;;;17.00;99.90;;;;;;5015636;28;20206;-51
2021/06/25 05:16:37;;;;;;;3.60;3.30;;;17.00;99.90;;;;;;5016038;28;20450;-51
2021/06/25 05:19:06;;;;;;;3.70;3.40;;;17.00;99.90;;;;;;5012580;28;20947;-50
2021/06/25 05:21:35;;;;;;;3.60;3.30;;;17.00;99.90;;;;;;5013974;28;20540;-51
2021/06/25 05:24:04;;;;;;;3.93;3.63;;;17.00;99.90;;;;;;5023016;28;20452;-50
2021/06/25 05:26:35;;;;;;;5.60;3.67;;;17.00;99.90;;;;;;5026297;28;20878;-49
2021/06/25 05:29:02;;;;;;;3.80;3.50;;;17.10;99.90;;;;;;5015347;28;20457;-50
2021/06/25 05:31:29;;;;;;;4.00;3.63;;;17.10;99.90;;;;;;5013674;28;20445;-50
2021/06/25 05:33:57;;;;;;;4.77;4.20;;;17.10;99.90;;;;;;5026670;28;20884;-51
2021/06/25 05:36:25;;;;;;;4.50;4.10;;;17.10;99.90;;;;;;5025930;28;20527;-50
2021/06/25 05:38:52;;;;;;;4.73;4.33;;;17.10;99.90;;;;;;5014608;28;20460;-50
2021/06/25 05:41:21;;;;;;;4.97;4.10;;;17.00;99.90;;;;;;5012851;28;20450;-49
2021/06/25 05:43:48;;;;;;;4.83;4.40;;;17.00;99.90;;;;;;5027621;28;20873;-50
2021/06/25 05:46:15;;;;;;;5.03;4.40;;;17.00;99.90;;;;;;5021198;28;20457;-50
2021/06/25 05:48:42;;;;;;;6.93;4.53;;;16.90;99.90;;;;;;5020013;28;20456;-50
2021/06/25 05:51:09;;;;;;;4.80;4.30;;;17.00;99.90;;;;;;5027584;28;20491;-50
2021/06/25 05:53:38;;;;;;;4.73;4.33;;;17.00;99.90;;;;;;5030802;28;20556;-49
2021/06/25 05:56:06;;;;;;;5.30;4.80;;;17.10;99.90;;;;;;5032351;28;20989;-50
2021/06/25 05:58:34;;;;;;;5.87;5.37;;;17.20;99.90;;;;;;5032490;28;20444;-50
2021/06/25 06:01:02;;;;;;;7.37;4.93;;;17.20;99.90;;;;;;5015533;28;20460;-49
2021/06/25 06:03:29;;;;;;;7.77;5.07;;;17.40;99.90;;;;;;5013613;28;21019;-50
2021/06/25 06:05:56;;;;;;;5.33;4.73;;;17.50;99.90;;;;;;5018534;28;20451;-49
2021/06/25 06:08:23;;;;;;;4.97;4.57;;;17.70;99.90;;;;;;5033389;28;20476;-50
2021/06/25 06:10:50;;;;;;;5.67;5.07;;;17.90;99.90;;;;;;5033785;28;20969;-49
2021/06/25 06:13:17;;;;;;;5.90;4.80;;;18.00;99.90;;;;;;5033571;28;20979;-50
2021/06/25 06:15:46;;;;;;;5.20;4.80;;;18.10;99.90;;;;;;5027580;28;20453;-50
2021/06/25 06:18:22;;;;;;;5.43;4.93;;;18.10;99.90;;;;;;5012749;28;20537;-50
2021/06/25 06:20:49;;;;;;;8.20;4.60;;;18.20;99.90;;;;;;5015725;28;20468;-50
2021/06/25 06:31:32;;;;;;;4.70;4.30;;;18.00;99.90;;;;;;5013612;28;21076;-49
2021/06/25 06:34:06;;;;;;;4.80;4.40;;;17.90;99.90;;;;;;5012328;28;20473;-50
2021/06/25 06:36:35;;;;;;;4.33;3.93;;;17.80;99.90;;;;;;5013553;28;20460;-50
2021/06/25 06:39:04;;;;;;;3.33;3.03;;;17.80;99.90;;;;;;5013412;28;20508;-50
2021/06/25 06:41:32;;;;;;;4.10;3.37;;;17.80;99.90;;;;;;5013105;28;20553;-50
2021/06/25 06:43:59;;;;;;;3.60;3.30;;;17.70;99.90;;;;;;5016949;28;20453;-50
2021/06/25 06:46:27;;;;;;;3.67;3.37;;;17.70;99.90;;;;;;5014600;28;20460;-50
2021/06/25 06:48:55;;;;;;;4.87;3.53;;;17.70;99.90;;;;;;5033118;28;20476;-50
2021/06/25 06:51:22;;;;;;;3.20;3.00;;;17.70;99.90;;;;;;5026479;28;20970;-49
2021/06/25 06:53:50;;;;;;;3.67;3.37;;;17.80;99.90;;;;;;5033050;28;21004;-50
2021/06/25 06:56:18;;;;;;;5.60;3.30;;;17.70;99.90;;;;;;5032826;28;20452;-49
2021/06/25 06:58:46;;;;;;;3.97;3.57;;;17.60;99.90;;;;;;5018611;28;20507;-50
2021/06/25 07:01:13;;;;;;;3.83;3.50;;;17.60;99.90;;;;;;5013063;28;20975;-50
2021/06/25 07:03:41;;;;;;;3.97;3.67;;;17.60;99.90;;;;;;5013781;28;20479;-50
2021/06/25 07:06:09;;;;;;;3.40;3.10;;;17.60;99.90;;;;;;5021460;28;20448;-50
2021/06/25 07:08:36;;;;;;;3.67;3.37;;;17.60;99.90;;;;;;5031942;28;20472;-50
2021/06/25 07:11:04;;;;;;;3.53;3.23;;;17.60;99.90;;;;;;5032651;28;20510;-50
2021/06/25 07:13:31;;;;;;;3.50;3.20;;;17.70;99.90;;;;;;5014379;28;20508;-50
2021/06/25 07:15:58;;;;;;;3.97;3.57;;;17.60;99.90;;;;;;5013951;28;20990;-49
2021/06/25 07:18:25;;;;;;;3.40;3.10;;;17.70;99.90;;;;;;5012744;28;20445;-50
2021/06/25 07:20:53;;;;;;;3.00;2.80;;;17.80;99.90;;;;;;5020880;28;20878;-50
2021/06/25 07:23:21;;;;;;;4.13;3.10;;;17.90;99.90;;;;;;5013919;28;20527;-50
2021/06/25 07:25:48;;;;;;;2.90;2.70;;;17.90;99.90;;;;;;5024312;28;20507;-50
2021/06/25 07:28:16;;;;;;;3.07;2.77;;;17.90;99.90;;;;;;5017735;28;20500;-50
2021/06/25 07:30:43;;;;;;;2.97;2.67;;;18.10;99.90;;;;;;5019334;28;20524;-50
2021/06/25 07:33:10;;;;;;;3.07;2.87;;;18.20;99.90;;;;;;5012295;28;20891;-50
2021/06/25 07:35:37;;;;;;;4.23;2.47;;;18.40;99.90;;;;;;5013628;28;20445;-50
2021/06/25 07:38:04;;;;;;;2.80;2.60;;;18.50;99.90;;;;;;5012406;28;20499;-49
2021/06/25 07:40:33;;;;;;;2.30;2.10;;;18.80;99.90;;;;;;5012552;28;20929;-50
2021/06/25 07:43:00;;;;;;;2.50;2.30;;;19.10;99.90;;;;;;5012239;28;20465;-50
2021/06/25 07:45:27;;;;;;;2.60;2.40;;;19.50;99.90;;;;;;5012521;28;20516;-50
2021/06/25 07:47:54;;;;;;;2.43;2.23;;;19.80;99.90;;;;;;5012322;28;20477;-50
2021/06/25 07:50:22;;;;;;;1.93;1.70;;;20.20;99.90;;;;;;5013303;28;21016;-50
2021/06/25 07:52:49;;;;;;;2.60;2.40;;;20.50;99.90;;;;;;5020342;28;20484;-50
2021/06/25 07:55:16;;;;;;;4.70;2.47;;;20.90;99.90;;;;;;5032198;28;20457;-50
2021/06/25 07:57:45;;;;;;;2.27;2.07;;;21.30;99.90;;;;;;5032033;28;20456;-50
2021/06/25 08:00:13;;;;;;;2.60;2.40;;;22.00;99.90;;;;;;5031980;28;20874;-50
2021/06/25 08:02:40;;;;;;;2.60;2.40;;;22.80;99.90;;;;;;5029785;28;20476;-50
2021/06/25 08:05:09;;;;;;;2.40;2.30;;;23.50;99.90;;;;;;5031346;28;20461;-50
2021/06/25 08:07:36;;;;;;;2.70;2.50;;;24.50;99.90;;;;;;5031338;28;20488;-50
2021/06/25 08:10:05;;;;;;;2.27;1.90;;;25.20;99.90;;;;;;5029335;28;21013;-50
2021/06/25 08:12:32;;;;;;;2.10;2.00;;;26.10;99.90;;;;;;5030924;28;20464;-51
2021/06/25 08:15:00;;;;;;;2.03;1.93;;;26.60;99.90;;;;;;5031205;28;20970;-50
2021/06/25 08:17:27;;;;;;;2.30;2.20;;;26.50;99.90;;;;;;5030933;28;20957;-50
2021/06/25 08:19:54;;;;;;;2.00;1.90;;;25.30;99.90;;;;;;5031174;28;20460;-51
2021/06/25 08:22:21;;;;;;;1.83;1.73;;;25.70;99.90;;;;;;5031242;28;20978;-51
2021/06/25 08:24:49;;;;;;;1.80;1.70;;;26.40;99.90;;;;;;5031542;28;20455;-51
2021/06/25 08:27:16;;;;;;;2.10;2.00;;;27.50;99.90;;;;;;5012911;28;20453;-51
2021/06/25 08:29:43;;;;;;;1.70;1.60;;;27.90;99.90;;;;;;5011744;28;20860;-51
2021/06/25 08:32:11;;;;;;;1.60;1.50;;;28.00;99.90;;;;;;5011427;28;20979;-51
2021/06/25 08:34:38;;;;;;;1.83;1.73;;;27.50;99.90;;;;;;5011719;28;20507;-49
2021/06/25 08:37:05;;;;;;;1.60;1.50;;;26.60;99.90;;;;;;5011895;28;20503;-51
2021/06/25 08:39:32;;;;;;;1.50;1.40;;;26.60;99.90;;;;;;5011782;28;20462;-50
2021/06/25 08:42:03;;;;;;;1.80;1.70;;;26.30;99.90;;;;;;5014979;28;20472;-50
2021/06/25 08:44:33;;;;;;;1.97;1.87;;;25.80;99.90;;;;;;5015834;28;20449;-50
2021/06/25 08:47:00;;;;;;;1.90;1.60;;;25.10;99.90;;;;;;5016024;28;20445;-50
2021/06/25 08:49:29;;;;;;;1.93;1.40;;;24.60;99.90;;;;;;5015760;28;20481;-50
2021/06/25 08:51:57;;;;;;;5.07;1.97;;;24.20;99.90;;;;;;5015336;28;20915;-50
2021/06/25 08:54:24;;;;;;;2.00;1.53;;;22.90;99.90;;;;;;5015491;28;21086;-51
2021/06/25 08:56:51;;;;;;;2.47;2.27;;;22.70;99.90;;;;;;5015468;28;20450;-50
2021/06/25 08:59:20;;;;;;;2.00;1.90;;;21.90;99.90;;;;;;5016337;28;20445;-51
2021/06/25 09:01:48;;;;;;;3.23;2.93;;;21.60;99.90;;;;;;5015133;28;20565;-50
2021/06/25 09:04:41;;;;;;;2.90;2.70;;;21.50;99.90;;;;;;5015257;28;20460;-50
2021/06/25 09:07:08;;;;;;;3.70;3.40;;;21.60;99.90;;;;;;5015485;28;20852;-50
2021/06/25 09:09:43;;;;;;;3.30;3.00;;;21.20;99.90;;;;;;5015064;28;20492;-49
2021/06/25 09:12:16;;;;;;;3.40;3.10;;;20.50;99.90;;;;;;5015071;28;20468;-50
2021/06/25 09:15:14;;;;;;;4.77;3.50;;;20.60;99.90;;;;;;5015266;28;20444;-50
2021/06/25 09:18:02;;;;;;;3.63;3.10;;;20.90;99.90;;;;;;4949959;29;20451;-49
2021/06/25 09:20:33;;;;;;;2.80;2.60;;;21.20;99.90;;;;;;5008608;28;20536;-50
2021/06/25 09:23:00;;;;;;;4.40;3.10;;;21.50;99.90;;;;;;5014930;28;20465;-49
2021/06/25 09:25:28;;;;;;;4.73;3.73;;;21.50;99.90;;;;;;5015068;28;20453;-50
2021/06/25 09:27:57;;;;;;;3.57;3.20;;;21.80;99.90;;;;;;5014964;28;20547;-50
2021/06/25 09:30:25;;;;;;;3.23;3.03;;;21.80;99.90;;;;;;5014148;28;20457;-50
2021/06/25 09:32:53;;;;;;;4.03;3.53;;;21.70;99.90;;;;;;5020742;28;20518;-50
2021/06/25 09:35:23;;;;;;;3.40;3.10;;;21.80;99.90;;;;;;5034714;28;20456;-50
2021/06/25 09:37:54;;;;;;;4.10;3.70;;;21.80;99.90;;;;;;5034694;28;20441;-50
2021/06/25 09:40:22;;;;;;;3.97;3.57;;;21.70;99.90;;;;;;5034542;28;20535;-50
2021/06/25 09:43:09;;;;;;;4.57;4.17;;;22.00;99.90;;;;;;5034272;28;20472;-50
2021/06/25 09:45:36;;;;;;;4.43;4.03;;;22.10;99.90;;;;;;5034575;28;20510;-49
2021/06/25 09:48:03;;;;;;;4.70;4.20;;;22.00;99.90;;;;;;5034501;28;20480;-50
2021/06/25 09:50:33;;;;;;;4.40;4.00;;;22.10;99.90;;;;;;5032597;28;20456;-50
2021/06/25 09:53:04;;;;;;;5.20;4.20;;;21.90;99.90;;;;;;5033766;28;20475;-50
2021/06/25 09:55:48;;;;;;;5.37;4.87;;;22.10;99.90;;;;;;5034181;28;20455;-50
2021/06/25 09:58:34;;;;;;;4.80;4.30;;;22.10;99.90;;;;;;5034225;28;20468;-50
2021/06/25 10:03:51;;;;;;;4.40;4.00;;;21.50;99.90;;;;;;5031633;28;20551;-50
2021/06/25 10:06:20;;;;;;;5.70;3.73;;;21.30;99.90;;;;;;5012771;28;20450;-51
2021/06/25 10:08:49;;;;;;;4.90;4.23;;;21.70;99.90;;;;;;5014855;28;20485;-50
2021/06/25 10:11:18;;;;;;;5.60;4.03;;;21.60;99.90;;;;;;5024822;28;21016;-50
2021/06/25 10:13:47;;;;;;;4.17;3.77;;;21.80;99.90;;;;;;5014590;28;20532;-51
2021/06/25 10:16:14;;;;;;;4.77;3.60;;;22.20;99.90;;;;;;5014039;28;20457;-51
2021/06/25 10:18:43;;;;;;;5.23;4.60;;;22.50;99.90;;;;;;5014826;28;20442;-51
2021/06/25 10:21:12;;;;;;;4.97;4.50;;;22.60;99.90;;;;;;5028093;28;20448;-51
2021/06/25 10:23:41;;;;;;;5.57;3.40;;;23.00;99.90;;;;;;5019715;28;21052;-51
2021/06/25 10:26:11;;;;;;;3.50;3.20;;;23.70;99.90;;;;;;5013847;28;20461;-51
2021/06/25 10:28:40;;;;;;;4.00;3.40;;;24.40;99.90;;;;;;5023758;28;20512;-51
2021/06/25 10:31:09;;;;;;;4.17;3.77;;;24.80;99.90;;;;;;5032856;28;20892;-51
2021/06/25 10:33:36;;;;;;;3.77;3.47;;;25.00;99.90;;;;;;5033286;28;20560;-51
2021/06/25 10:36:06;;;;;;;4.30;3.80;;;24.20;99.90;;;;;;5033510;28;20503;-50
2021/06/25 10:38:34;;;;;;;4.17;3.77;;;23.20;99.90;;;;;;5017637;28;20531;-51
2021/06/25 10:41:03;;;;;;;5.20;4.03;;;22.70;99.90;;;;;;5013490;28;20537;-51
2021/06/25 10:43:47;;;;;;;4.43;3.97;;;22.80;99.90;;;;;;5013426;28;20481;-51
2021/06/25 10:46:36;;;;;;;4.43;4.03;;;23.30;99.90;;;;;;5013364;28;20503;-50
2021/06/25 10:49:08;;;;;;;5.17;3.60;;;23.70;99.90;;;;;;5016672;28;20512;-50
2021/06/25 10:51:37;;;;;;;3.60;3.07;;;24.00;99.90;;;;;;5032811;28;20456;-50
2021/06/25 10:54:14;;;;;;;4.33;3.93;;;24.00;99.90;;;;;;5033281;28;20506;-51
2021/06/25 10:56:44;;;;;;;4.43;4.03;;;22.60;99.90;;;;;;5023556;28;20481;-51
2021/06/25 10:59:19;;;;;;;4.90;3.73;;;22.60;99.90;;;;;;5015016;28;20453;-51
2021/06/25 11:01:48;;;;;;;4.10;3.40;;;22.90;99.90;;;;;;5012759;28;20472;-51
2021/06/25 11:04:37;;;;;;;4.60;3.43;;;23.10;99.90;;;;;;5019217;22;20533;-58
2021/06/25 11:07:08;;;;;;;3.70;3.40;;;23.50;99.90;;;;;;4996614;28;20454;-58
2021/06/25 11:09:56;;;;;;;5.57;4.37;;;23.00;99.90;;;;;;4993514;28;20489;-58
2021/06/25 11:12:24;;;;;;;4.90;4.40;;;22.30;99.90;;;;;;4993326;28;20558;-57
2021/06/25 11:14:54;;;;;;;6.77;4.07;;;22.20;99.90;;;;;;4993140;28;20489;-58
2021/06/25 11:17:50;;;;;;;4.80;4.37;;;22.10;99.90;;;;;;4994526;28;20454;-58
2021/06/25 11:20:19;;;;;;;4.43;4.03;;;22.10;99.90;;;;;;4998121;28;20499;-58
2021/06/25 11:22:56;;;;;;;6.53;4.20;;;22.10;99.90;;;;;;5012335;28;20528;-58
2021/06/25 11:25:38;;;;;;;4.40;3.87;;;22.20;99.90;;;;;;5012729;28;20448;-58
2021/06/25 11:28:16;;;;;;;4.90;4.40;;;22.30;99.90;;;;;;5000573;28;20450;-58
2021/06/25 11:31:11;;;;;;;5.80;4.33;;;21.80;99.90;;;;;;5000648;28;20832;-58
2021/06/25 11:33:40;;;;;;;4.50;4.10;;;21.60;99.90;;;;;;4992669;28;20903;-58
2021/06/25 11:36:40;;;;;;;8.87;3.93;;;21.80;99.90;;;;;;4993140;28;20462;-58
2021/06/25 11:39:20;;;;;;;5.50;4.30;;;22.20;99.90;;;;;;4989021;28;20451;-58
2021/06/25 11:41:55;;;;;;;5.20;4.67;;;22.30;99.90;;;;;;5000894;28;20819;-58
2021/06/25 11:44:25;;;;;;;5.87;3.90;;;22.20;99.90;;;;;;5002038;28;20481;-57
2021/06/25 11:46:57;;;;;;;4.43;4.03;;;22.50;99.90;;;;;;5001469;28;20453;-58
2021/06/25 11:49:26;;;;;;;4.83;4.40;;;22.40;99.90;;;;;;5012065;28;20481;-58
2021/06/25 11:51:53;;;;;;;3.90;3.60;;;22.40;99.90;;;;;;5012004;28;20480;-58
2021/06/25 11:54:23;;;;;;;8.57;4.57;;;22.40;99.90;;;;;;5012173;28;20527;-58
2021/06/25 11:56:51;;;;;;;4.87;4.33;;;22.20;99.90;;;;;;5012547;28;20449;-58
2021/06/25 11:59:19;;;;;;;6.03;4.43;;;22.00;99.90;;;;;;5010784;28;20576;-58
2021/06/25 12:01:56;;;;;;;4.83;4.30;;;22.30;99.90;;;;;;5005267;28;21173;-58
2021/06/25 12:04:40;;;;;;;4.73;4.30;;;22.70;99.90;;;;;;4992389;28;20535;-58
2021/06/25 12:07:09;;;;;;;4.87;4.37;;;23.00;99.90;;;;;;4992485;28;20948;-58
2021/06/25 12:09:44;;;;;;;4.80;4.40;;;23.20;99.90;;;;;;4992269;28;20842;-58
2021/06/25 12:12:19;;;;;;;4.20;3.80;;;23.10;99.90;;;;;;4998937;28;20943;-58
2021/06/25 12:14:47;;;;;;;5.73;4.67;;;23.00;99.90;;;;;;4992303;28;20446;-58
2021/06/25 12:17:16;;;;;;;4.03;3.67;;;23.20;99.90;;;;;;4992186;28;20450;-58
2021/06/25 12:20:04;;;;;;;3.87;3.57;;;23.90;99.90;;;;;;4992481;28;20504;-59
2021/06/25 12:22:31;;;;;;;3.90;3.50;;;24.70;99.90;;;;;;5011569;28;20839;-58
2021/06/25 12:24:58;;;;;;;6.87;3.83;;;24.00;99.90;;;;;;5012086;28;20509;-58
2021/06/25 12:27:37;;;;;;;3.60;3.30;;;23.50;99.90;;;;;;5011786;28;20886;-58
2021/06/25 12:30:13;;;;;;;3.70;3.40;;;22.90;99.90;;;;;;5011904;28;20476;-59
2021/06/25 12:32:41;;;;;;;3.53;3.27;;;22.80;99.90;;;;;;5001626;28;20996;-58
2021/06/25 12:35:10;;;;;;;3.30;3.03;;;22.70;99.90;;;;;;4992170;28;20458;-58
2021/06/25 12:37:51;;;;;;;5.43;3.63;;;22.30;99.90;;;;;;4992236;28;20450;-58
2021/06/25 12:40:36;;;;;;;2.50;2.30;;;22.20;99.90;;;;;;4992149;28;20457;-58
2021/06/25 12:43:04;;;;;;;3.03;2.40;;;22.10;99.90;;;;;;4991096;28;20502;-57
2021/06/25 12:45:38;;;;;;;2.57;2.40;;;22.30;99.90;;;;;;4992833;28;20457;-58
2021/06/25 12:48:13;;;;;;;8.13;3.20;;;22.70;99.90;;;;;;5011765;28;20492;-57
2021/06/25 12:50:42;;;;;;;2.80;2.60;;;22.70;99.90;;;;;;5011441;28;21095;-58
2021/06/25 12:53:18;;;;;;;4.17;2.70;;;22.60;99.90;;;;;;5011323;28;20506;-58
2021/06/25 12:55:46;;;;;;;3.20;2.93;;;22.40;99.90;;;;;;5011722;28;20515;-58
2021/06/25 12:58:15;;;;;;;2.90;2.70;;;22.30;99.90;;;;;;5011579;28;20445;-58
2021/06/25 13:00:44;;;;;;;2.43;2.20;;;22.20;99.90;;;;;;5003320;28;20948;-58
2021/06/25 13:03:13;;;;;;;3.30;3.00;;;22.50;99.90;;;;;;4991405;28;20552;-58
2021/06/25 13:05:40;;;;;;;3.70;3.40;;;23.00;99.90;;;;;;4991879;28;20454;-57
2021/06/25 13:08:25;;;;;;;5.23;3.67;;;23.20;99.90;;;;;;4992068;28;20446;-58
2021/06/25 13:10:53;;;;;;;3.50;3.20;;;22.80;99.90;;;;;;4991019;28;21070;-57